Time;durP1;ratioP1;P1;durP2;ratioP2;P2;SDS_P1;SDS_P2;PMS_P1;PMS_P2;Temp;Humidity;BMP_temperature;BMP_pressure;BME280_temperature;BME280_humidity;BME280_pressure;Samples;Min_cycle;Max_cycle;Signal;HPM_P1;HPM_P2
2022/03/09 00:01:31;;;;;;;2.77;2.57;;;;;;;1.93;59.12;101297.59;5043923;28;20252;-76
2022/03/09 00:03:59;;;;;;;3.43;2.87;;;;;;;1.88;59.93;101293.13;5052382;28;20260;-76
2022/03/09 00:06:26;;;;;;;2.87;2.67;;;;;;;1.93;60.20;101276.13;5052332;28;20209;-76
2022/03/09 00:08:52;;;;;;;3.97;3.00;;;;;;;1.96;59.25;101287.41;5052217;28;20275;-76
2022/03/09 00:11:19;;;;;;;4.10;3.33;;;;;;;1.98;59.33;101288.31;5051989;28;20208;-76
2022/03/09 00:13:47;;;;;;;4.03;3.63;;;;;;;1.79;59.78;101296.31;5051985;28;20212;-76
2022/03/09 00:16:13;;;;;;;4.17;3.67;;;;;;;1.65;60.12;101287.31;5052422;28;20201;-76
2022/03/09 00:18:40;;;;;;;3.90;3.60;;;;;;;1.55;60.60;101288.72;5052056;28;20653;-76
2022/03/09 00:21:07;;;;;;;3.33;3.00;;;;;;;1.50;61.81;101272.25;5050939;28;20707;-76
2022/03/09 00:23:33;;;;;;;4.17;3.27;;;;;;;1.50;61.88;101272.25;5051805;28;20201;-76
2022/03/09 00:26:00;;;;;;;3.80;3.40;;;;;;;1.49;61.55;101286.81;5051803;28;20214;-76
2022/03/09 00:28:26;;;;;;;3.80;3.50;;;;;;;1.26;62.18;101268.06;5043957;28;20260;-75
2022/03/09 00:30:54;;;;;;;3.67;3.20;;;;;;;1.23;63.64;101238.78;5043713;28;20197;-76
2022/03/09 00:33:21;;;;;;;4.40;3.30;;;;;;;1.25;62.24;101238.03;5051828;28;20205;-76
2022/03/09 00:35:47;;;;;;;4.00;3.27;;;;;;;1.18;62.82;101225.81;5051839;28;20205;-75
2022/03/09 00:38:14;;;;;;;3.30;3.00;;;;;;;1.21;61.83;101237.88;5051650;28;20232;-75
2022/03/09 00:40:40;;;;;;;3.77;3.43;;;;;;;1.15;61.14;101253.97;5051973;28;20225;-76
2022/03/09 00:43:07;;;;;;;5.60;4.30;;;;;;;1.16;61.40;101263.44;5051613;28;20216;-76
2022/03/09 00:45:33;;;;;;;8.60;4.07;;;;;;;1.21;61.93;101258.44;5052099;28;20216;-76
2022/03/09 00:48:01;;;;;;;4.50;4.10;;;;;;;1.24;61.70;101250.84;5051737;28;20237;-76
2022/03/09 00:50:28;;;;;;;4.80;4.40;;;;;;;1.21;60.44;101281.59;5051876;28;20255;-76
2022/03/09 00:52:54;;;;;;;4.63;4.23;;;;;;;1.32;60.68;101290.53;5051502;28;20691;-76
2022/03/09 00:55:20;;;;;;;5.13;4.73;;;;;;;1.42;61.31;101296.84;5051861;28;20209;-75
2022/03/09 00:57:47;;;;;;;4.60;4.20;;;;;;;1.48;61.76;101285.06;5047442;28;20241;-76
2022/03/09 01:00:14;;;;;;;4.63;4.23;;;;;;;1.56;61.33;101290.44;5040022;28;20222;-76
2022/03/09 01:02:42;;;;;;;4.17;3.80;;;;;;;1.56;60.12;101301.59;5011829;28;20207;-76
2022/03/09 01:05:11;;;;;;;4.57;4.17;;;;;;;1.61;60.60;101309.47;5012050;28;20210;-76
2022/03/09 01:07:37;;;;;;;4.40;3.43;;;;;;;1.56;60.70;101314.47;5012159;28;20255;-75
2022/03/09 01:10:05;;;;;;;3.73;3.43;;;;;;;1.65;60.67;101313.03;5012144;28;20202;-76
2022/03/09 01:12:32;;;;;;;4.53;3.17;;;;;;;1.63;60.32;101319.84;5011898;28;20561;-76
2022/03/09 01:14:59;;;;;;;3.47;3.10;;;;;;;1.52;61.07;101333.19;5012041;28;20206;-75
2022/03/09 01:17:26;;;;;;;3.27;2.97;;;;;;;1.49;60.97;101319.38;5011994;28;20584;-75
2022/03/09 01:19:53;;;;;;;3.17;2.87;;;;;;;1.50;61.71;101293.69;5011683;28;20237;-75
2022/03/09 01:22:21;;;;;;;3.70;3.40;;;;;;;1.47;62.13;101277.31;5011610;28;20672;-76
2022/03/09 01:24:48;;;;;;;4.10;3.33;;;;;;;1.46;63.25;101260.13;5012039;28;20215;-76
2022/03/09 01:27:14;;;;;;;4.87;3.20;;;;;;;1.54;61.87;101266.38;5011797;28;20207;-76
2022/03/09 01:29:41;;;;;;;3.00;2.80;;;;;;;1.38;62.12;101281.31;5039877;28;20283;-76
2022/03/09 01:32:08;;;;;;;5.70;3.60;;;;;;;1.40;62.85;101260.78;5048449;28;20255;-76
2022/03/09 01:34:35;;;;;;;3.87;3.57;;;;;;;1.43;63.12;101242.00;5055235;28;20209;-76
2022/03/09 01:37:02;;;;;;;4.93;3.47;;;;;;;1.43;63.90;101229.13;5055013;28;20250;-76
2022/03/09 01:39:29;;;;;;;3.13;2.90;;;;;;;1.43;64.22;101223.97;5055268;28;20582;-75
2022/03/09 01:41:56;;;;;;;3.20;2.90;;;;;;;1.41;62.82;101241.06;5053954;28;20290;-76
2022/03/09 01:44:24;;;;;;;3.60;3.30;;;;;;;1.41;63.25;101238.50;5055098;28;20209;-75
2022/03/09 01:46:52;;;;;;;3.90;3.43;;;;;;;1.46;63.38;101232.69;5054627;28;20209;-75
2022/03/09 01:49:20;;;;;;;3.17;2.83;;;;;;;1.52;63.23;101240.59;5054639;28;20703;-75
2022/03/09 01:51:48;;;;;;;3.40;3.00;;;;;;;1.56;63.16;101247.56;5054517;28;20212;-76
2022/03/09 01:54:16;;;;;;;3.43;3.10;;;;;;;1.53;63.66;101237.19;5054697;28;20605;-76
2022/03/09 01:56:45;;;;;;;3.27;2.90;;;;;;;1.56;63.09;101232.13;5054635;28;20802;-76
2022/03/09 01:59:14;;;;;;;3.53;3.10;;;;;;;1.61;62.68;101234.00;5046661;28;20226;-75
2022/03/09 02:01:41;;;;;;;3.50;3.20;;;;;;;1.62;61.98;101249.47;5042427;28;20802;-76
2022/03/09 02:04:08;;;;;;;3.10;2.80;;;;;;;1.59;61.01;101268.25;5034176;28;20737;-75
2022/03/09 02:06:36;;;;;;;3.20;2.90;;;;;;;1.64;61.41;101290.69;5034315;28;20210;-76
2022/03/09 02:11:50;;;;;;;3.17;2.87;;;;;;;1.64;61.92;101257.22;5034608;28;20264;-75
2022/03/09 02:14:27;;;;;;;3.70;3.00;;;;;;;1.62;61.96;101258.88;5034596;28;20294;-75
2022/03/09 02:16:54;;;;;;;3.00;2.80;;;;;;;1.63;62.18;101258.94;5034359;28;20741;-75
2022/03/09 02:19:21;;;;;;;3.17;2.97;;;;;;;1.70;61.67;101271.16;5034257;28;20285;-75
2022/03/09 02:21:49;;;;;;;3.63;3.33;;;;;;;1.74;61.97;101266.97;5034539;28;20226;-76
2022/03/09 02:24:17;;;;;;;3.03;2.83;;;;;;;1.76;61.23;101283.34;5034299;28;20202;-75
2022/03/09 02:26:43;;;;;;;3.10;2.80;;;;;;;1.78;61.78;101279.09;5034247;28;20240;-75
2022/03/09 02:29:10;;;;;;;4.33;3.20;;;;;;;1.74;61.79;101270.41;5041612;28;20251;-75
2022/03/09 02:31:36;;;;;;;3.20;2.90;;;;;;;1.74;62.38;101264.41;5045463;28;20198;-76
2022/03/09 02:34:03;;;;;;;3.30;3.00;;;;;;;1.76;62.21;101257.59;5053791;28;20235;-75
2022/03/09 02:36:29;;;;;;;3.17;2.97;;;;;;;1.60;63.68;101258.84;5053807;28;20201;-75
2022/03/09 02:38:58;;;;;;;4.20;3.80;;;;;;;1.52;63.53;101235.44;5053951;28;20232;-75
2022/03/09 02:41:28;;;;;;;5.20;3.23;;;;;;;1.55;61.64;101250.97;5053929;28;20259;-75
2022/03/09 02:43:54;;;;;;;4.00;3.33;;;;;;;1.64;62.07;101259.81;5052417;28;20237;-75
2022/03/09 02:46:21;;;;;;;3.80;3.50;;;;;;;1.68;61.99;101254.78;5053805;28;20275;-75
2022/03/09 02:48:49;;;;;;;3.63;3.17;;;;;;;1.71;61.81;101264.31;5053910;28;20259;-75
2022/03/09 02:51:15;;;;;;;3.40;3.10;;;;;;;1.75;62.05;101268.75;5053731;28;20201;-75
2022/03/09 02:53:42;;;;;;;3.57;3.27;;;;;;;1.64;62.48;101263.25;5053589;28;20206;-75
2022/03/09 02:56:09;;;;;;;4.20;3.30;;;;;;;1.50;63.56;101243.94;5053651;28;20358;-75
2022/03/09 02:58:36;;;;;;;3.67;3.37;;;;;;;1.43;64.44;101211.13;5045225;28;20232;-75
2022/03/09 03:01:03;;;;;;;3.73;3.23;;;;;;;1.48;63.17;101214.72;5045001;28;20721;-75
2022/03/09 03:03:30;;;;;;;3.50;3.07;;;;;;;1.51;63.59;101222.56;5053117;28;20209;-75
2022/03/09 03:05:56;;;;;;;3.30;3.00;;;;;;;1.36;64.47;101220.34;5053455;28;20201;-75
2022/03/09 03:08:22;;;;;;;3.90;3.57;;;;;;;1.35;64.12;101203.19;5053327;28;20225;-75
2022/03/09 03:10:49;;;;;;;4.27;3.30;;;;;;;1.25;64.02;101193.44;5053224;28;20232;-75
2022/03/09 03:13:15;;;;;;;4.20;3.50;;;;;;;1.24;64.45;101190.00;5053171;28;20209;-75
2022/03/09 03:15:43;;;;;;;4.37;2.97;;;;;;;1.25;63.65;101196.00;5053486;28;20217;-75
2022/03/09 03:18:09;;;;;;;3.37;3.03;;;;;;;1.32;64.08;101203.97;5052962;28;20237;-74
2022/03/09 03:20:36;;;;;;;3.77;3.43;;;;;;;1.30;64.47;101207.31;5053018;28;20201;-75
2022/03/09 03:23:02;;;;;;;4.20;3.13;;;;;;;1.24;64.59;101217.41;5052816;28;20216;-75
2022/03/09 03:25:29;;;;;;;7.67;3.50;;;;;;;1.19;64.92;101205.28;5053018;28;20209;-75
2022/03/09 03:27:55;;;;;;;3.70;3.40;;;;;;;1.08;64.58;101201.50;5047291;28;20229;-75
2022/03/09 03:30:22;;;;;;;4.03;3.63;;;;;;;1.04;65.00;101191.06;5042277;28;20209;-75
2022/03/09 03:32:49;;;;;;;3.87;3.47;;;;;;;0.98;66.23;101176.31;5052704;28;20723;-75
2022/03/09 03:35:16;;;;;;;4.13;3.70;;;;;;;0.98;66.56;101172.03;5053033;28;20577;-75
2022/03/09 03:37:42;;;;;;;4.90;4.07;;;;;;;0.96;65.48;101165.13;5052761;28;20599;-75
2022/03/09 03:40:09;;;;;;;4.10;3.40;;;;;;;0.97;66.17;101162.59;5052612;28;20263;-75
2022/03/09 03:42:36;;;;;;;3.43;3.13;;;;;;;1.03;65.72;101164.50;5051830;28;20228;-75
2022/03/09 03:45:03;;;;;;;5.07;4.23;;;;;;;0.96;65.91;101171.13;5052779;28;20291;-75
2022/03/09 03:47:29;;;;;;;3.57;3.27;;;;;;;0.95;66.41;101161.69;5052331;28;20284;-75
2022/03/09 03:49:57;;;;;;;3.63;3.33;;;;;;;0.92;66.32;101156.44;5052514;28;20230;-75
2022/03/09 03:52:24;;;;;;;4.43;4.03;;;;;;;0.92;65.81;101156.44;5052193;28;20204;-75
2022/03/09 03:54:50;;;;;;;4.53;3.60;;;;;;;0.97;66.00;101169.41;5052325;28;20220;-75
2022/03/09 03:57:16;;;;;;;3.53;3.23;;;;;;;0.99;65.30;101180.63;5052324;28;20241;-75
2022/03/09 03:59:43;;;;;;;3.63;3.33;;;;;;;1.00;65.32;101177.25;5040566;28;20726;-75
2022/03/09 04:02:09;;;;;;;3.40;3.13;;;;;;;1.07;65.01;101174.06;5049515;28;20221;-75
2022/03/09 04:04:36;;;;;;;3.90;3.50;;;;;;;1.12;65.29;101189.63;5054503;28;20208;-75
2022/03/09 04:07:04;;;;;;;4.97;3.60;;;;;;;1.09;65.45;101192.97;5054198;28;20245;-75
2022/03/09 04:09:31;;;;;;;3.97;3.67;;;;;;;1.10;65.12;101191.25;5052598;28;20576;-75
2022/03/09 04:11:57;;;;;;;3.90;3.57;;;;;;;1.08;65.90;101185.19;5051941;28;20202;-75
2022/03/09 04:14:24;;;;;;;4.83;3.53;;;;;;;1.02;65.55;101185.00;5052135;28;20209;-75
2022/03/09 04:16:50;;;;;;;4.07;3.67;;;;;;;0.96;66.48;101180.53;5051777;28;20213;-75
2022/03/09 04:19:17;;;;;;;4.33;3.93;;;;;;;0.87;66.65;101168.25;5051770;28;20235;-75
2022/03/09 04:21:43;;;;;;;10.57;3.97;;;;;;;0.71;65.93;101179.72;5051736;28;20231;-75
2022/03/09 04:24:11;;;;;;;4.53;4.13;;;;;;;0.50;67.07;101177.31;5051914;28;20263;-75
2022/03/09 04:26:38;;;;;;;4.53;4.07;;;;;;;0.42;67.69;101153.09;5051868;28;20253;-75
2022/03/09 04:29:04;;;;;;;4.13;3.83;;;;;;;0.38;68.46;101138.41;5043621;28;20713;-75
2022/03/09 04:31:31;;;;;;;3.57;3.27;;;;;;;0.35;68.76;101117.75;5043348;28;20205;-75
2022/03/09 04:33:57;;;;;;;4.13;3.80;;;;;;;0.28;69.44;101095.22;5051638;28;20251;-75
2022/03/09 04:36:24;;;;;;;4.20;3.87;;;;;;;0.27;69.38;101078.97;5051866;28;20620;-75
2022/03/09 04:38:50;;;;;;;4.67;4.03;;;;;;;0.26;69.03;101074.66;5051784;28;20642;-75
2022/03/09 04:41:18;;;;;;;4.40;4.00;;;;;;;0.29;68.84;101081.59;5051793;28;20298;-75
2022/03/09 04:43:45;;;;;;;4.30;3.90;;;;;;;0.36;69.18;101088.69;5051268;28;20213;-75
2022/03/09 04:46:11;;;;;;;4.73;4.33;;;;;;;0.38;69.03;101084.47;5051456;28;20617;-74
2022/03/09 04:48:38;;;;;;;4.17;3.87;;;;;;;0.41;69.03;101086.25;5051835;28;20239;-75
2022/03/09 04:51:04;;;;;;;4.30;3.90;;;;;;;0.42;68.35;101099.16;5051612;28;20727;-75
2022/03/09 04:53:31;;;;;;;4.63;3.93;;;;;;;0.41;68.88;101091.41;5051575;28;20209;-75
2022/03/09 04:55:58;;;;;;;4.57;4.03;;;;;;;0.43;68.04;101106.03;5051633;28;20201;-75
2022/03/09 04:58:26;;;;;;;6.37;4.50;;;;;;;0.47;68.13;101123.28;5043422;28;20233;-75
2022/03/09 05:00:53;;;;;;;4.67;4.20;;;;;;;0.56;67.14;101130.44;5043157;28;20210;-75
2022/03/09 05:03:19;;;;;;;6.33;4.00;;;;;;;0.62;66.67;101155.44;5051409;28;20272;-74
2022/03/09 05:05:46;;;;;;;4.53;4.13;;;;;;;0.65;66.08;101183.78;5051430;28;20205;-75
2022/03/09 05:08:13;;;;;;;4.63;4.10;;;;;;;0.72;65.40;101202.03;5055087;28;20226;-75
2022/03/09 05:10:39;;;;;;;5.47;4.13;;;;;;;0.76;65.73;101203.88;5055507;28;20220;-75
2022/03/09 05:13:06;;;;;;;4.83;4.30;;;;;;;0.78;66.28;101198.81;5055184;28;20204;-75
2022/03/09 05:15:34;;;;;;;4.03;3.63;;;;;;;0.74;66.41;101184.13;5055113;28;20680;-75
2022/03/09 05:18:01;;;;;;;4.80;4.03;;;;;;;0.75;65.19;101194.44;5055096;28;20298;-75
2022/03/09 05:20:27;;;;;;;5.57;4.70;;;;;;;0.74;64.88;101204.66;5055340;28;20219;-74
2022/03/09 05:22:54;;;;;;;6.30;4.83;;;;;;;0.74;65.16;101218.38;5055328;28;20249;-75
2022/03/09 05:25:22;;;;;;;5.00;4.60;;;;;;;0.71;65.12;101222.53;5055454;28;20204;-75
2022/03/09 05:27:49;;;;;;;5.20;4.70;;;;;;;0.73;65.52;101220.88;5050464;28;20306;-75
2022/03/09 05:30:15;;;;;;;5.00;4.60;;;;;;;0.71;65.48;101214.81;5043515;28;20201;-74
2022/03/09 05:32:43;;;;;;;6.93;4.00;;;;;;;0.71;66.33;101209.69;5054902;28;20640;-75
2022/03/09 05:35:10;;;;;;;4.93;4.43;;;;;;;0.63;66.65;101190.56;5055221;28;20240;-75
2022/03/09 05:37:38;;;;;;;5.17;4.27;;;;;;;0.43;67.57;101177.06;5054788;28;20225;-75
2022/03/09 05:40:06;;;;;;;9.17;4.43;;;;;;;0.37;68.02;101163.19;5054799;28;20748;-75
2022/03/09 05:42:33;;;;;;;5.43;4.93;;;;;;;0.15;68.40;101133.34;5054187;28;20229;-75
2022/03/09 05:44:59;;;;;;;4.33;3.93;;;;;;;0.22;68.38;101125.84;5054869;28;20263;-75
2022/03/09 05:47:26;;;;;;;5.13;4.57;;;;;;;0.20;68.59;101118.09;5054664;28;20224;-75
2022/03/09 05:49:54;;;;;;;5.13;4.23;;;;;;;0.18;69.10;101117.19;5054914;28;20210;-75
2022/03/09 05:52:20;;;;;;;5.27;4.77;;;;;;;0.29;68.57;101114.97;5054414;28;20204;-75
2022/03/09 05:54:47;;;;;;;5.13;4.70;;;;;;;0.22;68.39;101115.56;5054988;28;20730;-75
2022/03/09 05:57:14;;;;;;;5.17;4.67;;;;;;;0.09;67.76;101119.41;5055657;28;20289;-75
2022/03/09 05:59:40;;;;;;;5.17;4.67;;;;;;;0.07;67.73;101139.03;5044135;28;20628;-74
2022/03/09 06:02:06;;;;;;;5.40;4.90;;;;;;;0.21;68.19;101137.81;5051140;28;20579;-74
2022/03/09 06:04:33;;;;;;;5.10;4.70;;;;;;;0.19;68.30;101131.75;5054328;28;20207;-74
2022/03/09 06:07:03;;;;;;;5.37;4.87;;;;;;;0.16;69.53;101111.13;5054409;28;20256;-74
2022/03/09 06:09:29;;;;;;;6.20;4.73;;;;;;;0.14;69.33;101100.78;5054538;28;20205;-75
2022/03/09 06:11:56;;;;;;;5.23;4.73;;;;;;;0.10;69.17;101104.09;5054297;28;20732;-74
2022/03/09 06:14:23;;;;;;;6.00;4.73;;;;;;;0.01;69.54;101105.47;5054016;28;20242;-75
2022/03/09 06:16:49;;;;;;;5.00;4.50;;;;;;;0.06;69.57;101089.41;5054116;28;20209;-74
2022/03/09 06:19:16;;;;;;;4.50;4.10;;;;;;;0.13;69.81;101099.03;5053823;28;20621;-74
2022/03/09 06:21:44;;;;;;;5.07;4.67;;;;;;;0.21;69.54;101099.28;5054003;28;20280;-74
2022/03/09 06:24:12;;;;;;;5.60;4.97;;;;;;;0.26;69.41;101102.91;5054034;28;20273;-74
2022/03/09 06:26:39;;;;;;;4.87;4.47;;;;;;;0.19;70.50;101096.69;5054198;28;20214;-74
2022/03/09 06:29:06;;;;;;;5.83;5.07;;;;;;;0.18;70.63;101081.25;5045797;28;20709;-75
2022/03/09 06:31:33;;;;;;;4.80;4.23;;;;;;;0.14;70.95;101074.22;5045627;28;20203;-74
2022/03/09 06:33:59;;;;;;;5.47;4.77;;;;;;;0.14;71.54;101064.84;5053617;28;20619;-75
2022/03/09 06:36:26;;;;;;;5.00;4.60;;;;;;;0.13;71.02;101060.53;5054171;28;20263;-75
2022/03/09 06:38:52;;;;;;;5.37;4.97;;;;;;;0.17;71.29;101052.09;5053703;28;20713;-75
2022/03/09 06:41:20;;;;;;;6.57;5.20;;;;;;;0.24;71.21;101066.03;5053568;28;20673;-74
2022/03/09 06:43:47;;;;;;;5.10;4.70;;;;;;;0.22;71.74;101046.25;5052537;28;20223;-74
2022/03/09 06:46:13;;;;;;;6.20;5.60;;;;;;;0.30;72.19;101024.28;5043640;28;20279;-74
2022/03/09 06:48:40;;;;;;;5.77;5.17;;;;;;;0.33;71.53;101035.50;5023826;28;20253;-74
2022/03/09 06:51:06;;;;;;;6.00;5.40;;;;;;;0.43;71.20;101049.53;5024416;28;20278;-78
2022/03/09 06:53:32;;;;;;;6.10;5.43;;;;;;;0.50;71.06;101063.44;5022346;28;20202;-75
2022/03/09 06:55:59;;;;;;;5.73;5.23;;;;;;;0.54;71.47;101070.44;5023638;28;20207;-75
2022/03/09 06:58:27;;;;;;;6.07;5.33;;;;;;;0.47;70.98;101065.91;5026913;28;20302;-75
2022/03/09 07:00:55;;;;;;;7.20;5.10;;;;;;;0.54;71.50;101075.56;5031287;28;20224;-75
2022/03/09 07:03:22;;;;;;;5.67;5.17;;;;;;;0.60;71.98;101062.91;5023109;28;20276;-75
2022/03/09 07:05:48;;;;;;;5.30;4.80;;;;;;;0.61;72.97;101032.94;5021850;28;20538;-75
2022/03/09 07:08:14;;;;;;;5.13;4.73;;;;;;;0.65;73.23;101021.94;5024273;28;20223;-75
2022/03/09 07:10:41;;;;;;;6.27;5.67;;;;;;;0.70;72.37;101021.25;5022949;28;20200;-75
2022/03/09 07:13:07;;;;;;;5.90;5.40;;;;;;;0.77;71.75;101048.00;5022119;28;20208;-75
2022/03/09 07:15:35;;;;;;;6.47;5.33;;;;;;;0.81;71.06;101067.84;5023921;28;20255;-75
2022/03/09 07:18:02;;;;;;;5.57;5.07;;;;;;;0.88;70.66;101074.91;5022493;28;20241;-75
2022/03/09 07:20:29;;;;;;;5.37;4.93;;;;;;;0.97;70.02;101098.34;5033242;28;20215;-75
2022/03/09 07:22:55;;;;;;;7.10;6.23;;;;;;;1.05;69.47;101113.09;5033068;28;20233;-75
2022/03/09 07:25:22;;;;;;;6.40;5.80;;;;;;;1.14;68.52;101157.09;5031917;28;20210;-75
2022/03/09 07:27:49;;;;;;;5.80;5.30;;;;;;;1.17;68.77;101154.66;5032971;28;20234;-76
2022/03/09 07:30:15;;;;;;;5.83;5.33;;;;;;;1.31;67.81;101157.59;5041123;28;20199;-76
2022/03/09 07:32:43;;;;;;;5.40;5.00;;;;;;;1.39;67.71;101179.31;5052744;28;20208;-76
2022/03/09 07:35:11;;;;;;;5.90;5.37;;;;;;;1.47;66.70;101189.84;5052559;28;20211;-76
2022/03/09 07:37:38;;;;;;;6.67;5.47;;;;;;;1.56;67.80;101200.38;5052848;28;20232;-76
2022/03/09 07:40:05;;;;;;;6.30;5.70;;;;;;;1.68;66.16;101210.19;5052802;28;20212;-76
2022/03/09 07:42:32;;;;;;;6.27;5.67;;;;;;;1.73;66.13;101230.06;5053028;28;20607;-76
2022/03/09 07:45:00;;;;;;;7.70;5.60;;;;;;;1.77;65.58;101246.50;5052483;28;20214;-76
2022/03/09 07:47:26;;;;;;;5.90;5.30;;;;;;;1.83;66.74;101243.22;5052486;28;20557;-75
2022/03/09 07:49:54;;;;;;;7.27;6.57;;;;;;;1.84;68.37;101201.19;5052970;28;20207;-76
2022/03/09 07:52:21;;;;;;;6.23;5.73;;;;;;;1.88;69.11;101173.00;5052607;28;20668;-76
2022/03/09 07:54:47;;;;;;;5.77;5.03;;;;;;;1.97;65.50;101211.91;5052362;28;20231;-76
2022/03/09 07:57:14;;;;;;;6.90;5.90;;;;;;;2.17;64.60;101271.69;5052619;28;20208;-77
2022/03/09 07:59:40;;;;;;;6.50;5.90;;;;;;;2.27;64.01;101272.81;5042423;28;20208;-76
2022/03/09 08:02:07;;;;;;;6.60;6.00;;;;;;;2.43;62.32;101310.19;5047613;28;20205;-76
2022/03/09 08:04:34;;;;;;;6.20;5.60;;;;;;;2.55;61.71;101356.06;5052369;28;20644;-76
2022/03/09 08:07:02;;;;;;;6.40;5.67;;;;;;;2.74;61.23;101376.38;5052030;28;20759;-76
2022/03/09 08:09:29;;;;;;;6.13;5.57;;;;;;;2.90;61.85;101369.06;5052127;28;20734;-76
2022/03/09 08:11:55;;;;;;;5.80;4.90;;;;;;;3.09;60.41;101402.28;5051908;28;20683;-76
2022/03/09 08:14:21;;;;;;;6.23;5.63;;;;;;;3.18;60.85;101391.31;5052066;28;20817;-76
2022/03/09 08:16:48;;;;;;;5.80;5.20;;;;;;;3.36;58.46;101451.16;5052256;28;20740;-76
2022/03/09 08:19:15;;;;;;;6.53;5.97;;;;;;;3.47;61.52;101450.56;5052707;28;20746;-76
2022/03/09 08:21:42;;;;;;;5.87;5.27;;;;;;;3.58;61.91;101384.59;5053301;28;20208;-77
2022/03/09 08:24:09;;;;;;;5.47;4.97;;;;;;;4.09;52.52;101543.41;5053561;28;20286;-77
2022/03/09 08:26:36;;;;;;;6.13;5.20;;;;;;;4.30;53.96;101662.84;5054747;28;20259;-77
2022/03/09 08:29:02;;;;;;;5.43;4.93;;;;;;;4.36;52.13;101670.75;5045779;28;20221;-77
2022/03/09 08:31:29;;;;;;;5.63;5.03;;;;;;;4.52;50.74;101728.91;5045887;28;20213;-77
2022/03/09 08:33:56;;;;;;;5.50;5.00;;;;;;;4.65;50.11;101768.91;5053541;28;20680;-77
2022/03/09 08:36:22;;;;;;;5.60;5.10;;;;;;;4.86;49.03;101806.53;5053948;28;20209;-77
2022/03/09 08:38:49;;;;;;;5.97;5.37;;;;;;;4.99;52.83;101777.53;5054004;28;20225;-77
2022/03/09 08:41:17;;;;;;;7.27;6.57;;;;;;;5.00;56.72;101729.28;5054114;28;20211;-77
2022/03/09 08:43:44;;;;;;;5.60;5.10;;;;;;;4.80;57.27;101542.50;5057171;28;20282;-77
2022/03/09 08:46:11;;;;;;;6.90;6.30;;;;;;;4.85;62.93;101427.94;5057490;28;20293;-77
2022/03/09 08:48:38;;;;;;;8.70;6.77;;;;;;;5.07;67.25;101281.75;5057494;28;20728;-76
2022/03/09 08:51:05;;;;;;;7.27;6.67;;;;;;;5.08;64.49;101273.16;5040796;28;20198;-77
2022/03/09 08:53:32;;;;;;;7.63;6.93;;;;;;;4.86;65.41;101304.69;5037995;28;20289;-77
2022/03/09 08:55:58;;;;;;;7.30;6.70;;;;;;;4.64;66.54;101282.69;5037223;28;20213;-76
2022/03/09 08:58:26;;;;;;;7.50;6.80;;;;;;;4.66;66.79;101268.06;5038883;28;20230;-76
2022/03/09 09:00:53;;;;;;;8.40;6.90;;;;;;;4.72;69.77;101199.25;5048864;28;20197;-77
2022/03/09 09:03:19;;;;;;;7.20;6.50;;;;;;;5.02;75.26;101102.28;5056182;28;20282;-77
2022/03/09 09:05:46;;;;;;;7.37;6.67;;;;;;;5.12;72.86;101049.81;5032489;28;20195;-76
2022/03/09 09:08:13;;;;;;;8.03;7.40;;;;;;;5.25;70.56;101070.66;5036968;28;20313;-76
2022/03/09 09:10:39;;;;;;;7.17;6.57;;;;;;;5.15;66.44;101196.47;5037149;28;20202;-77
2022/03/09 09:13:06;;;;;;;7.93;7.23;;;;;;;5.18;66.51;101256.06;5036292;28;20206;-77
2022/03/09 09:15:34;;;;;;;7.80;7.10;;;;;;;5.17;65.62;101283.69;5037499;28;20263;-76
2022/03/09 09:18:01;;;;;;;8.33;7.57;;;;;;;5.19;65.74;101294.03;5034991;28;20292;-77
2022/03/09 09:20:29;;;;;;;7.67;7.07;;;;;;;5.25;64.68;101313.97;5034354;28;20268;-76
2022/03/09 09:22:56;;;;;;;8.00;7.23;;;;;;;5.18;65.39;101323.34;5025379;28;20224;-76
2022/03/09 09:25:24;;;;;;;8.93;7.23;;;;;;;5.21;64.60;101341.50;5027415;28;20256;-77
2022/03/09 09:27:51;;;;;;;8.87;7.40;;;;;;;5.20;64.24;101359.63;5021495;28;20234;-76
2022/03/09 09:30:17;;;;;;;7.80;7.03;;;;;;;5.28;63.96;101374.44;5046133;28;20598;-76
2022/03/09 09:32:46;;;;;;;8.00;7.30;;;;;;;5.29;62.94;101389.13;5037113;28;20209;-77
2022/03/09 09:35:13;;;;;;;10.37;7.63;;;;;;;5.35;62.39;101404.78;5033644;28;20223;-77
2022/03/09 09:37:40;;;;;;;10.10;9.03;;;;;;;5.52;62.55;101414.56;5016711;28;20227;-77
2022/03/09 09:40:08;;;;;;;9.47;8.63;;;;;;;5.76;64.44;101357.97;5016624;28;20489;-76
2022/03/09 09:42:35;;;;;;;12.00;8.10;;;;;;;5.86;63.75;101390.06;5016507;28;20203;-77
2022/03/09 09:45:02;;;;;;;8.37;7.67;;;;;;;5.89;60.86;101410.88;5016847;28;20824;-76
2022/03/09 09:47:29;;;;;;;9.57;8.67;;;;;;;5.86;60.73;101478.16;5023194;28;20712;-76
2022/03/09 09:49:58;;;;;;;11.10;7.27;;;;;;;5.97;61.08;101462.84;5025009;28;20194;-77
2022/03/09 09:52:26;;;;;;;8.90;8.00;;;;;;;6.00;60.83;101474.97;5026544;28;20203;-77
2022/03/09 09:54:55;;;;;;;8.70;7.90;;;;;;;6.06;61.29;101447.44;5026010;28;20333;-77
2022/03/09 09:57:22;;;;;;;7.80;7.07;;;;;;;6.13;60.80;101444.09;5026364;28;20293;-77
2022/03/09 09:59:49;;;;;;;7.57;6.83;;;;;;;6.19;58.20;101507.28;5033276;28;20202;-77
2022/03/09 10:02:16;;;;;;;6.73;6.13;;;;;;;6.27;57.63;101557.53;5029009;28;20623;-77
2022/03/09 10:04:44;;;;;;;7.50;6.80;;;;;;;6.31;57.69;101565.38;5025891;28;20627;-76
2022/03/09 10:07:12;;;;;;;7.67;6.97;;;;;;;6.32;56.30;101590.47;5024276;28;20199;-77
2022/03/09 10:09:40;;;;;;;8.00;7.20;;;;;;;6.46;55.20;101626.13;5025611;28;20244;-77
2022/03/09 10:12:08;;;;;;;7.43;6.73;;;;;;;6.54;54.88;101658.25;5026946;28;20200;-77
2022/03/09 10:14:42;;;;;;;7.87;7.10;;;;;;;6.72;52.71;101705.28;5026710;28;20201;-77
2022/03/09 10:17:10;;;;;;;8.13;7.37;;;;;;;7.02;48.12;101805.28;5025286;28;20278;-77
2022/03/09 10:19:39;;;;;;;8.27;7.47;;;;;;;7.23;47.58;101887.88;5025673;28;20264;-77
2022/03/09 10:22:25;;;;;;;7.07;6.40;;;;;;;7.41;47.30;101928.88;5026779;28;20219;-77
2022/03/09 10:24:52;;;;;;;7.57;6.77;;;;;;;7.46;47.04;101931.59;5024126;28;20226;-77
2022/03/09 10:27:38;;;;;;;7.27;6.67;;;;;;;7.54;46.78;101981.97;5024715;28;20195;-77
2022/03/09 10:30:06;;;;;;;8.40;6.87;;;;;;;7.58;46.79;101969.91;5030624;28;20194;-78
2022/03/09 10:32:47;;;;;;;8.00;7.30;;;;;;;7.66;47.00;101974.38;5027604;28;20201;-77
2022/03/09 10:35:15;;;;;;;7.90;7.17;;;;;;;7.76;46.90;101962.44;5024382;28;20203;-78
2022/03/09 10:37:45;;;;;;;7.60;6.90;;;;;;;7.86;45.77;101969.53;5025409;28;20565;-77
2022/03/09 10:40:14;;;;;;;7.00;6.40;;;;;;;7.93;47.10;101987.00;5024692;28;20610;-77
2022/03/09 10:42:41;;;;;;;7.03;6.33;;;;;;;8.02;45.94;101993.19;5025262;28;20211;-76
2022/03/09 10:45:08;;;;;;;10.27;7.03;;;;;;;8.09;46.23;102000.25;5026442;28;20233;-77
2022/03/09 10:47:37;;;;;;;7.47;6.77;;;;;;;8.10;46.74;101989.00;5025156;28;20226;-77
2022/03/09 10:50:16;;;;;;;6.63;6.13;;;;;;;8.11;46.25;101998.56;5024566;28;20204;-77
2022/03/09 10:52:52;;;;;;;7.97;6.13;;;;;;;8.18;47.14;101994.31;5025478;28;20202;-77
2022/03/09 10:55:28;;;;;;;6.50;6.00;;;;;;;8.41;43.48;101997.28;5030124;28;20238;-77
2022/03/09 10:58:08;;;;;;;7.10;6.50;;;;;;;8.66;46.95;102035.88;5035296;28;20280;-77
2022/03/09 11:00:40;;;;;;;6.90;6.30;;;;;;;8.74;48.29;101963.97;5045146;28;20207;-77
2022/03/09 11:03:11;;;;;;;6.57;6.07;;;;;;;8.81;44.82;102005.69;5030427;28;20205;-77
2022/03/09 11:05:48;;;;;;;6.87;6.27;;;;;;;8.90;41.22;102128.19;5024123;28;20203;-76
2022/03/09 11:08:16;;;;;;;6.53;5.93;;;;;;;8.98;40.17;102215.16;5023957;28;20214;-77
2022/03/09 11:10:45;;;;;;;6.03;5.57;;;;;;;9.09;40.59;102244.84;5024506;28;20197;-77
2022/03/09 11:13:12;;;;;;;6.17;5.57;;;;;;;9.15;40.17;102213.69;5023989;28;20291;-77
2022/03/09 11:15:40;;;;;;;5.90;5.30;;;;;;;9.30;38.51;102287.75;5024346;28;20202;-77
2022/03/09 11:18:07;;;;;;;6.77;5.20;;;;;;;9.35;38.93;102299.13;5025668;28;20244;-76
2022/03/09 11:20:34;;;;;;;5.37;4.87;;;;;;;9.33;37.55;102322.53;5024112;28;20262;-76
2022/03/09 11:23:01;;;;;;;5.33;4.93;;;;;;;9.44;39.82;102343.59;5024174;28;20226;-77
2022/03/09 11:25:28;;;;;;;5.27;4.77;;;;;;;9.58;36.63;102358.59;5026150;28;20198;-76
2022/03/09 11:27:56;;;;;;;5.53;5.13;;;;;;;9.72;38.90;102384.00;5025372;28;20264;-77
2022/03/09 11:30:25;;;;;;;5.30;4.80;;;;;;;9.81;37.67;102352.00;5032367;28;20207;-77
2022/03/09 11:32:54;;;;;;;5.40;4.90;;;;;;;9.93;38.99;102333.03;5028851;28;20546;-77
2022/03/09 11:35:38;;;;;;;5.80;5.17;;;;;;;10.01;37.37;102333.13;5024520;28;20288;-77
2022/03/09 11:38:43;;;;;;;5.27;4.87;;;;;;;10.03;37.11;102378.38;5025787;28;20229;-77